Time;durP1;ratioP1;P1;durP2;ratioP2;P2;SDS_P1;SDS_P2;PMS_P1;PMS_P2;Temp;Humidity;BMP_temperature;BMP_pressure;BME280_temperature;BME280_humidity;BME280_pressure;Samples;Min_cycle;Max_cycle;Signal;HPM_P1;HPM_P2
2022/10/08 00:01:12;;;;;;;21.92;3.95;;;8.60;99.90;;;7.33;100.00;101086.69;4957233;28;20031;-76
2022/10/08 00:03:42;;;;;;;18.58;4.25;;;8.60;99.90;;;7.29;100.00;101090.31;4924001;29;20054;-77
2022/10/08 00:06:26;;;;;;;14.68;3.47;;;8.60;99.90;;;7.28;100.00;101093.81;4954672;28;20062;-76
2022/10/08 00:08:57;;;;;;;11.55;3.63;;;8.60;99.90;;;7.26;100.00;101087.78;4953674;28;20028;-76
2022/10/08 00:11:26;;;;;;;14.63;3.30;;;8.50;99.90;;;7.24;100.00;101086.97;4941488;28;20191;-77
2022/10/08 00:13:57;;;;;;;27.35;3.45;;;8.50;99.90;;;7.24;100.00;101092.19;4954499;28;20035;-76
2022/10/08 00:16:38;;;;;;;15.25;3.60;;;8.50;99.90;;;7.27;100.00;101085.09;4957888;28;20377;-77
2022/10/08 00:19:09;;;;;;;20.75;3.25;;;8.50;99.90;;;7.28;100.00;101075.47;4956063;28;20086;-77
2022/10/08 00:21:38;;;;;;;13.18;3.28;;;8.50;99.90;;;7.26;100.00;101074.69;4956018;28;20028;-77
2022/10/08 00:24:07;;;;;;;16.17;3.60;;;8.50;99.90;;;7.26;100.00;101074.69;4957147;28;20032;-77
2022/10/08 00:26:35;;;;;;;17.48;3.38;;;8.50;99.90;;;7.22;100.00;101073.88;4954810;28;20382;-77
2022/10/08 00:29:04;;;;;;;12.70;3.28;;;8.40;99.90;;;7.18;100.00;101069.63;4942242;29;20504;-76
2022/10/08 00:31:36;;;;;;;13.07;2.85;;;8.40;99.90;;;7.14;100.00;101071.47;4955863;28;20040;-76
2022/10/08 00:34:07;;;;;;;26.75;4.32;;;8.40;99.90;;;7.11;100.00;101065.47;4957387;28;20090;-76
2022/10/08 00:36:37;;;;;;;19.23;6.32;;;8.40;99.90;;;7.05;100.00;101058.63;4954512;28;20067;-76
2022/10/08 00:39:08;;;;;;;14.02;4.45;;;8.40;99.90;;;7.03;100.00;101057.81;4957201;28;20040;-76
2022/10/08 00:41:37;;;;;;;14.85;3.83;;;8.30;99.90;;;7.02;100.00;101058.72;4951412;28;20133;-76
2022/10/08 00:44:53;;;;;;;14.80;3.17;;;8.30;99.90;;;6.97;100.00;101052.72;4957721;28;20051;-77
2022/10/08 00:47:32;;;;;;;18.80;3.63;;;8.20;99.90;;;6.89;100.00;101049.44;4955912;28;20031;-76
2022/10/08 00:50:12;;;;;;;19.48;3.22;;;8.20;99.90;;;6.88;100.00;101048.59;4952486;28;20488;-76
2022/10/08 00:52:58;;;;;;;18.75;3.20;;;8.20;99.90;;;6.85;100.00;101046.06;4956941;28;20566;-77
2022/10/08 00:55:26;;;;;;;25.05;3.72;;;8.20;99.90;;;6.83;100.00;101039.16;4952978;28;20058;-77
2022/10/08 00:57:55;;;;;;;17.70;4.03;;;8.20;99.90;;;6.81;100.00;101041.81;4939208;29;20031;-77
2022/10/08 01:00:24;;;;;;;12.85;3.40;;;8.10;99.90;;;6.83;100.00;101044.41;4955764;28;20035;-77
2022/10/08 01:02:51;;;;;;;18.77;3.10;;;8.10;99.90;;;6.80;100.00;101034.00;4971987;23;20035;-81
2022/10/08 01:05:47;;;;;;;16.65;4.13;;;8.20;99.90;;;6.78;100.00;101032.28;4957359;28;20343;-83
2022/10/08 01:08:49;;;;;;;13.90;3.38;;;8.10;99.90;;;6.81;100.00;101031.34;4980991;28;20038;-83
2022/10/08 01:11:54;;;;;;;;;;;;;;;;;;;;;
2022/10/08 01:14:56;;;;;;;21.40;4.10;;;;;;;6.77;100.00;101027.94;4970271;28;20094;-83
2022/10/08 01:17:48;;;;;;;14.48;4.80;;;8.10;99.90;;;6.70;100.00;101018.53;4969857;28;20031;-83
2022/10/08 01:20:28;;;;;;;19.73;4.07;;;;;;;6.68;100.00;101015.09;4966810;28;20031;-83
2022/10/08 01:23:33;;;;;;;19.67;5.05;;;8.10;99.90;;;6.68;100.00;101020.31;4966244;28;20028;-83
2022/10/08 01:26:22;;;;;;;15.07;3.85;;;8.10;99.90;;;6.68;100.00;101017.72;4963902;28;20098;-84
2022/10/08 01:28:56;;;;;;;21.88;3.90;;;8.10;99.90;;;6.70;100.00;101013.31;4948495;29;20020;-83
2022/10/08 01:31:53;;;;;;;19.02;4.03;;;8.10;99.90;;;6.67;100.00;101007.28;4953059;28;20035;-84
2022/10/08 01:34:37;;;;;;;21.23;4.10;;;8.10;99.90;;;6.67;100.00;101007.28;4947632;28;20106;-83
2022/10/08 01:37:16;;;;;;;39.60;11.38;;;8.10;99.90;;;6.65;100.00;101006.44;4948387;29;20029;-83
2022/10/08 01:40:10;;;;;;;19.02;5.88;;;8.10;99.90;;;6.62;100.00;100999.56;4952045;28;20103;-83
2022/10/08 01:42:40;;;;;;;15.63;4.47;;;8.00;99.90;;;6.64;100.00;100994.28;4966646;28;20042;-83
2022/10/08 01:45:34;;;;;;;16.27;3.83;;;8.00;99.90;;;6.61;100.00;100992.63;4948551;29;20039;-83
2022/10/08 01:48:21;;;;;;;;;;;;;;;;;;;;;
2022/10/08 01:51:04;;;;;;;15.38;3.33;;;8.00;99.90;;;6.58;100.00;100987.44;4953887;28;20098;-84
2022/10/08 01:53:37;;;;;;;16.13;3.25;;;8.00;99.90;;;6.58;100.00;100987.44;4950645;28;20041;-83
2022/10/08 01:56:26;;;;;;;19.60;4.03;;;8.00;99.90;;;6.55;100.00;100984.91;4933275;28;20035;-84
2022/10/08 01:59:19;;;;;;;21.23;3.90;;;;;;;6.54;100.00;100977.94;4949384;28;20102;-83
2022/10/08 02:02:06;;;;;;;26.00;3.92;;;;;;;6.51;100.00;100978.91;4965719;28;20034;-83
2022/10/08 02:04:40;;;;;;;17.55;4.00;;;7.90;99.90;;;6.54;100.00;100991.03;4951968;28;20796;-83
2022/10/08 02:07:28;;;;;;;19.65;4.43;;;;;;;6.53;100.00;100976.25;4946613;28;20034;-83
2022/10/08 02:10:33;;;;;;;14.27;4.22;;;7.90;99.90;;;6.47;100.00;100965.94;4964673;28;20079;-83
2022/10/08 02:12:59;;;;;;;17.17;3.80;;;7.80;99.90;;;6.42;100.00;100966.06;4943952;28;20043;-84
2022/10/08 02:16:25;;;;;;;13.95;4.30;;;7.80;99.90;;;6.38;100.00;100960.94;4948029;29;20087;-85
2022/10/08 02:19:09;;;;;;;17.48;4.20;;;7.70;99.90;;;6.32;100.00;100964.56;4947673;28;20045;-83
2022/10/08 02:21:51;;;;;;;17.60;3.90;;;7.70;99.90;;;6.25;100.00;100961.25;4951660;28;20538;-83
2022/10/08 02:24:29;;;;;;;13.02;3.67;;;;;;;6.21;100.00;100954.38;4952557;29;20042;-84
2022/10/08 02:27:08;;;;;;;15.25;3.53;;;7.60;99.90;;;6.19;100.00;100957.94;4949754;28;20079;-84
2022/10/08 02:30:13;;;;;;;;;;;;;;;;;;;;;
2022/10/08 02:33:36;;;;;;;21.83;4.00;;;7.30;99.90;;;6.02;100.00;100955.72;4960084;28;20106;-84
2022/10/08 02:36:30;;;;;;;25.83;4.78;;;7.50;99.90;;;5.98;100.00;100949.69;4917131;29;20412;-83
2022/10/08 02:39:10;;;;;;;35.85;12.98;;;7.40;99.90;;;5.99;100.00;100961.03;4952059;28;20119;-83
2022/10/08 02:41:49;;;;;;;29.15;7.65;;;7.40;99.90;;;5.99;100.00;100969.72;4947928;28;20031;-85
2022/10/08 02:44:31;;;;;;;37.03;14.55;;;7.40;99.90;;;6.02;100.00;100971.41;4961140;28;20057;-83
2022/10/08 02:47:10;;;;;;;31.33;11.40;;;7.40;99.90;;;5.92;100.00;100963.75;4950426;28;20660;-83
2022/10/08 02:49:43;;;;;;;29.80;8.18;;;7.40;99.90;;;5.97;100.00;100970.66;4944579;28;20039;-83
2022/10/08 02:52:10;;;;;;;41.15;16.33;;;7.40;99.90;;;6.02;100.00;100976.63;4946071;28;20035;-83
2022/10/08 02:54:41;;;;;;;29.08;7.68;;;7.40;99.90;;;6.04;100.00;100969.63;4948433;29;20062;-83
2022/10/08 02:57:27;;;;;;;23.88;5.05;;;7.40;99.90;;;6.06;100.00;100968.69;4948572;28;20031;-84
2022/10/08 02:59:52;;;;;;;18.33;4.80;;;7.40;99.90;;;6.08;100.00;100966.03;4955778;28;20040;-83
2022/10/08 03:02:31;;;;;;;16.25;3.45;;;7.50;99.90;;;6.13;100.00;100974.63;4965631;28;20027;-83
2022/10/08 03:05:02;;;;;;;14.50;3.42;;;7.50;99.90;;;6.14;100.00;100971.97;4955253;28;20038;-83
2022/10/08 03:07:36;;;;;;;18.58;3.85;;;7.50;99.90;;;6.18;100.00;100971.88;4949842;28;20392;-82
2022/10/08 03:10:05;;;;;;;15.63;3.00;;;7.50;99.90;;;6.20;100.00;100965.75;4945985;28;20043;-82
2022/10/08 03:12:33;;;;;;;16.95;3.92;;;7.50;99.90;;;6.23;100.00;100965.66;4943213;29;20066;-81
2022/10/08 03:15:10;;;;;;;22.25;5.43;;;7.50;99.90;;;6.24;100.00;100971.75;4944424;29;20043;-83
2022/10/08 03:17:43;;;;;;;16.75;5.45;;;7.50;99.90;;;6.21;100.00;100970.06;4947137;28;20037;-84
2022/10/08 03:20:11;;;;;;;13.75;4.10;;;7.50;99.90;;;6.19;100.00;100971.84;4949610;29;20027;-83
2022/10/08 03:22:37;;;;;;;21.38;5.00;;;7.50;99.90;;;6.15;100.00;100975.44;4946944;28;20496;-83
2022/10/08 03:25:04;;;;;;;19.23;3.85;;;7.50;99.90;;;6.11;100.00;100971.19;4941507;29;20051;-83
2022/10/08 03:27:39;;;;;;;31.52;7.15;;;7.40;99.90;;;6.11;100.00;100965.94;4944504;28;20031;-81
2022/10/08 03:30:08;;;;;;;16.75;5.53;;;7.40;99.90;;;6.03;100.00;100952.22;4961112;28;20038;-83
2022/10/08 03:32:45;;;;;;;20.55;6.07;;;7.40;99.90;;;6.01;100.00;100959.25;4944394;28;20128;-83
2022/10/08 03:35:11;;;;;;;22.52;5.55;;;7.40;99.90;;;6.01;100.00;100949.63;4960788;28;20049;-83
2022/10/08 03:37:37;;;;;;;23.50;5.35;;;7.40;99.90;;;5.99;100.00;100954.03;4964061;28;20062;-84
2022/10/08 03:40:09;;;;;;;21.25;4.00;;;7.40;99.90;;;6.02;100.00;100950.50;4946715;28;20051;-83
2022/10/08 03:42:35;;;;;;;17.02;4.45;;;;;;;5.97;100.00;100949.75;4938765;29;20018;-83
2022/10/08 03:45:01;;;;;;;15.98;4.38;;;7.40;99.90;;;6.01;100.00;100946.19;4960275;28;20046;-82
2022/10/08 03:47:27;;;;;;;20.80;3.78;;;7.40;99.90;;;6.03;100.00;100947.00;4926197;29;20055;-82
2022/10/08 03:49:53;;;;;;;24.27;4.35;;;7.40;99.90;;;6.05;100.00;100946.06;4941065;29;20063;-82
2022/10/08 03:52:28;;;;;;;10.43;3.08;;;7.40;99.90;;;6.08;100.00;100951.19;4947345;28;20131;-82
2022/10/08 03:54:57;;;;;;;12.60;3.42;;;7.40;99.90;;;6.07;100.00;100948.63;4945533;29;20042;-83
2022/10/08 03:57:30;;;;;;;21.63;4.32;;;7.40;99.90;;;6.05;100.00;100943.44;4948141;28;20032;-83
2022/10/08 03:59:56;;;;;;;16.38;3.85;;;7.40;99.90;;;6.01;100.00;100941.81;4962816;28;20031;-84
2022/10/08 04:02:22;;;;;;;15.70;3.47;;;7.40;99.90;;;6.02;100.00;100935.66;4961395;28;20023;-82
2022/10/08 04:04:48;;;;;;;16.65;3.45;;;7.30;99.90;;;6.03;100.00;100939.16;4944493;28;20081;-83
2022/10/08 04:07:13;;;;;;;20.10;3.70;;;7.40;99.90;;;6.05;100.00;100945.22;4943407;29;20396;-83
2022/10/08 04:09:47;;;;;;;13.18;3.00;;;7.40;99.90;;;6.05;100.00;100946.06;4928816;28;20066;-83
2022/10/08 04:12:12;;;;;;;19.00;3.40;;;7.40;99.90;;;6.06;100.00;100941.69;4942938;29;20030;-82
2022/10/08 04:14:38;;;;;;;15.27;3.38;;;7.40;99.90;;;6.09;100.00;100942.47;4946784;28;20031;-82
2022/10/08 04:17:13;;;;;;;17.52;3.45;;;7.40;99.90;;;6.13;100.00;100940.63;4961334;28;20035;-83
2022/10/08 04:19:38;;;;;;;11.32;3.65;;;7.40;99.90;;;6.14;100.00;100947.59;4945104;29;20453;-82
2022/10/08 04:22:04;;;;;;;16.33;3.63;;;7.50;99.90;;;6.19;100.00;100942.25;4945655;28;20117;-84
2022/10/08 04:24:30;;;;;;;16.23;3.15;;;7.50;99.90;;;6.23;100.00;100944.72;4960623;28;20019;-81
2022/10/08 04:26:56;;;;;;;14.18;3.60;;;7.60;99.90;;;6.27;100.00;100941.16;4961932;28;20083;-83
2022/10/08 04:29:30;;;;;;;23.95;3.50;;;7.60;99.90;;;6.31;100.00;100945.41;4943072;29;20031;-82
2022/10/08 04:31:58;;;;;;;14.05;3.25;;;7.60;99.90;;;6.34;100.00;100947.09;4962645;28;20027;-83
2022/10/08 04:34:24;;;;;;;14.07;3.95;;;7.60;99.90;;;6.40;100.00;100951.31;4929986;28;20125;-83
2022/10/08 04:36:57;;;;;;;18.63;3.30;;;7.70;99.90;;;6.43;100.00;100944.22;4953746;29;20039;-82
2022/10/08 04:39:33;;;;;;;;;;;;;;;;;;;;;
2022/10/08 04:42:01;;;;;;;14.98;3.38;;;7.80;99.90;;;6.52;100.00;100941.38;4967611;28;20059;-82
2022/10/08 04:44:27;;;;;;;21.83;3.03;;;7.80;99.90;;;6.56;100.00;100947.38;4944948;28;20036;-82
2022/10/08 04:46:53;;;;;;;18.80;3.58;;;7.90;99.90;;;6.61;100.00;100937.66;4945974;28;20033;-83
2022/10/08 04:49:19;;;;;;;21.10;3.75;;;7.90;99.90;;;6.65;100.00;100930.56;4945130;29;20031;-83
2022/10/08 04:51:44;;;;;;;15.00;3.65;;;7.90;99.90;;;6.68;100.00;100935.75;4946571;28;20030;-83
2022/10/08 04:54:19;;;;;;;19.33;4.40;;;8.00;99.90;;;6.70;100.00;100932.19;4942237;29;20039;-82
2022/10/08 04:56:45;;;;;;;24.17;3.33;;;8.00;99.90;;;6.72;100.00;100924.28;4962835;28;20038;-82
2022/10/08 04:59:11;;;;;;;17.92;3.72;;;8.00;99.90;;;6.72;100.00;100917.28;4962703;28;20438;-83
2022/10/08 05:01:37;;;;;;;22.77;3.45;;;8.00;99.90;;;6.73;100.00;100912.91;4963949;28;20039;-82
2022/10/08 05:04:08;;;;;;;15.10;3.75;;;8.00;99.90;;;6.76;100.00;100905.84;4967092;28;20488;-82
2022/10/08 05:06:33;;;;;;;16.67;3.47;;;8.10;99.90;;;6.77;100.00;100907.53;4951261;28;20106;-83
2022/10/08 05:09:02;;;;;;;16.90;3.35;;;8.10;99.90;;;6.82;100.00;100902.16;4951677;28;20039;-82
2022/10/08 05:11:36;;;;;;;16.67;3.83;;;8.10;99.90;;;6.82;100.00;100906.56;4950913;29;21410;-83
2022/10/08 05:14:02;;;;;;;19.20;3.75;;;8.10;99.90;;;6.82;100.00;100909.19;4951829;29;20039;-82
2022/10/08 05:16:27;;;;;;;19.90;3.50;;;8.10;99.90;;;6.82;100.00;100910.03;4954346;28;20058;-83
2022/10/08 05:18:54;;;;;;;18.25;3.80;;;8.10;99.90;;;6.85;100.00;100907.34;4934511;29;20431;-82
2022/10/08 05:21:28;;;;;;;17.67;3.38;;;8.20;99.90;;;6.89;100.00;100919.44;4959790;28;20460;-83
2022/10/08 05:24:01;;;;;;;22.23;3.90;;;8.20;99.90;;;6.95;100.00;100907.91;4951053;28;20023;-83
2022/10/08 05:26:38;;;;;;;18.95;3.40;;;8.20;99.90;;;7.03;100.00;100919.03;4951031;28;20027;-82
2022/10/08 05:29:04;;;;;;;16.67;3.78;;;8.30;99.90;;;7.09;100.00;100921.47;4948344;28;20033;-82
2022/10/08 05:31:31;;;;;;;14.02;3.30;;;8.30;99.90;;;7.16;100.00;100920.38;4940451;28;20074;-82
2022/10/08 05:34:00;;;;;;;15.63;3.00;;;8.40;99.90;;;7.24;100.00;100920.19;4947920;28;20117;-82
2022/10/08 05:36:29;;;;;;;19.75;3.38;;;8.40;99.90;;;7.31;100.00;100931.31;4944238;29;20039;-82
2022/10/08 05:39:00;;;;;;;21.33;4.05;;;8.50;99.90;;;7.37;100.00;100929.38;4948051;28;20162;-83
2022/10/08 05:41:29;;;;;;;18.83;3.60;;;8.60;99.90;;;7.46;100.00;100933.47;4959734;28;20031;-83
2022/10/08 05:43:57;;;;;;;17.10;3.95;;;8.60;99.90;;;7.53;100.00;100927.16;4932855;28;20543;-82
2022/10/08 05:46:35;;;;;;;18.83;3.33;;;8.70;99.90;;;7.64;100.00;100924.19;4944923;29;20035;-82
2022/10/08 05:49:03;;;;;;;16.30;3.83;;;8.80;99.90;;;7.77;100.00;100935.16;4945298;28;20031;-82
2022/10/08 05:51:39;;;;;;;22.58;3.53;;;8.90;99.90;;;7.89;100.00;100936.53;4944333;29;20137;-82
2022/10/08 05:54:05;;;;;;;21.90;4.10;;;8.90;99.90;;;8.00;100.00;100943.13;4948232;28;20036;-80
2022/10/08 05:56:30;;;;;;;21.08;3.78;;;9.10;99.90;;;8.12;100.00;100943.63;4943501;28;20039;-81
2022/10/08 05:59:08;;;;;;;20.15;3.70;;;9.10;99.90;;;8.26;100.00;100936.19;4940736;29;20039;-83
2022/10/08 06:01:34;;;;;;;19.05;3.53;;;9.30;99.90;;;8.44;100.00;100941.75;4928433;28;20809;-83
2022/10/08 06:04:17;;;;;;;21.83;3.70;;;9.40;99.90;;;9.21;100.00;100953.00;4941588;29;20027;-81
2022/10/08 06:06:48;;;;;;;18.35;4.45;;;9.70;99.90;;;10.13;96.83;100966.94;4941064;29;20028;-82
2022/10/08 06:09:18;;;;;;;23.95;3.78;;;10.10;99.90;;;10.61;91.54;100961.44;4940507;29;20031;-82
2022/10/08 06:11:45;;;;;;;20.85;4.57;;;10.30;99.90;;;10.52;89.16;100963.59;4944084;28;20022;-82
2022/10/08 06:14:19;;;;;;;16.88;3.92;;;10.60;99.90;;;12.56;84.15;100974.38;4942382;28;20039;-82
2022/10/08 06:16:45;;;;;;;22.48;4.22;;;11.20;99.90;;;12.98;77.45;100973.94;4936156;28;20064;-82
2022/10/08 06:19:11;;;;;;;17.90;4.03;;;11.70;99.90;;;13.73;76.39;100982.25;4922201;29;21268;-81
2022/10/08 06:21:37;;;;;;;16.67;4.13;;;12.10;99.90;;;14.06;74.00;100990.09;4957067;28;20031;-83
2022/10/08 06:24:10;;;;;;;19.15;3.50;;;12.50;99.90;;;13.92;72.49;100982.06;4937819;28;20034;-83
2022/10/08 06:26:38;;;;;;;19.30;3.60;;;12.70;99.90;;;12.87;75.09;100971.84;4960148;28;20027;-82
2022/10/08 06:29:20;;;;;;;10.82;3.30;;;12.70;99.90;;;12.16;77.85;100968.41;4940804;28;20095;-83
2022/10/08 06:31:57;;;;;;;20.27;3.65;;;12.50;99.90;;;11.58;80.30;100972.91;4944652;28;20031;-82
2022/10/08 06:34:23;;;;;;;19.20;3.25;;;12.30;99.90;;;11.22;82.10;100978.94;4927520;28;20031;-81
2022/10/08 06:36:49;;;;;;;16.30;3.58;;;12.10;99.90;;;11.02;84.08;100979.00;4944410;29;20094;-83
2022/10/08 06:39:21;;;;;;;18.52;3.40;;;12.00;99.90;;;10.96;85.03;100987.16;4941300;28;20031;-82
2022/10/08 06:41:46;;;;;;;16.73;3.72;;;11.90;99.90;;;10.98;86.04;100982.69;4941144;29;20031;-83
2022/10/08 06:44:13;;;;;;;18.70;4.22;;;11.80;99.90;;;11.49;85.10;100995.28;4924250;29;20042;-81
2022/10/08 06:46:40;;;;;;;16.38;3.85;;;11.90;99.90;;;11.49;83.88;100986.53;4962379;28;20030;-83
2022/10/08 06:49:05;;;;;;;19.33;3.88;;;12.20;99.90;;;13.23;78.61;100989.34;4943181;29;20031;-84
2022/10/08 06:51:39;;;;;;;16.83;3.63;;;12.60;99.90;;;13.69;76.20;100996.59;4941574;28;20054;-83
2022/10/08 06:54:07;;;;;;;16.73;3.58;;;12.90;99.90;;;13.81;75.24;101000.34;4958972;23;20103;-84
2022/10/08 06:56:41;;;;;;;15.45;3.80;;;13.30;99.90;;;13.43;75.61;100993.56;4951382;28;20053;-84
2022/10/08 06:59:07;;;;;;;16.33;3.92;;;13.30;99.90;;;12.84;77.61;100987.84;4957552;28;20025;-85
2022/10/08 07:01:46;;;;;;;;;;;;;;;;;;;;;
2022/10/08 07:04:40;;;;;;;19.38;4.05;;;13.20;99.90;;;12.73;79.48;100996.34;4957664;28;20130;-83
2022/10/08 07:07:20;;;;;;;20.10;4.15;;;;;;;12.99;79.11;100993.28;4952364;28;20042;-84
2022/10/08 07:09:48;;;;;;;17.65;3.60;;;13.40;99.90;;;13.73;77.32;100998.97;4963694;28;20039;-85
2022/10/08 07:12:17;;;;;;;19.17;3.60;;;13.70;99.90;;;14.45;74.78;101001.09;4951019;28;20034;-84
2022/10/08 07:14:50;;;;;;;17.95;3.53;;;14.00;99.90;;;14.07;75.15;101006.84;4948456;28;20178;-83
2022/10/08 07:17:19;;;;;;;14.60;3.42;;;;;;;14.42;74.55;101006.59;4950814;28;20110;-84
2022/10/08 07:20:08;;;;;;;18.15;3.70;;;14.40;99.90;;;14.44;73.94;100994.13;4957413;28;20119;-84
2022/10/08 07:22:57;;;;;;;15.98;3.63;;;14.70;99.90;;;15.62;71.71;101002.03;4954890;28;20031;-84
2022/10/08 07:25:31;;;;;;;21.00;3.70;;;15.00;99.90;;;14.97;71.71;101004.22;4922350;29;20094;-83
2022/10/08 07:28:00;;;;;;;15.57;3.58;;;;;;;14.44;73.47;100997.59;4939154;28;20408;-84
2022/10/08 07:30:38;;;;;;;18.77;3.85;;;;;;;13.82;75.38;100999.41;4965175;28;20039;-84
2022/10/08 07:33:20;;;;;;;14.90;2.78;;;14.70;99.90;;;13.36;77.38;101000.13;4953222;28;20043;-85
2022/10/08 07:36:41;;;;;;;17.20;3.28;;;14.40;99.90;;;13.10;79.07;101007.63;4958288;28;20030;-83
2022/10/08 07:39:29;;;;;;;20.30;3.55;;;;;;;12.79;80.73;101011.03;4931304;28;20045;-80
2022/10/08 07:42:03;;;;;;;20.88;3.97;;;13.90;99.90;;;12.70;81.63;101003.59;4954467;28;20057;-79
2022/10/08 07:44:29;;;;;;;18.02;3.40;;;13.80;99.90;;;12.63;82.63;101004.81;4949034;28;20515;-79
2022/10/08 07:47:29;;;;;;;10.65;3.22;;;13.60;99.90;;;12.38;83.25;101005.19;4963965;28;20039;-80
2022/10/08 07:50:09;;;;;;;18.75;3.90;;;13.50;99.90;;;12.25;83.62;101016.34;4965423;28;20043;-81
2022/10/08 07:55:41;;;;;;;19.73;4.15;;;;;;;12.06;85.39;101023.47;4965125;23;20063;-84
2022/10/08 07:58:40;;;;;;;13.43;3.00;;;13.20;99.90;;;11.97;86.44;101024.75;4936608;29;20036;-83
2022/10/08 08:03:08;;;;;;;19.77;3.28;;;13.10;99.90;;;11.85;87.09;101030.56;4911956;29;20126;-83
2022/10/08 08:05:21;;;;;;;15.68;3.35;;;12.90;99.90;;;11.68;87.53;101032.22;4853910;29;20044;-83
2022/10/08 08:08:23;;;;;;;23.00;4.38;;;12.80;99.90;;;11.54;88.40;101029.38;4911238;29;20035;-82
2022/10/08 08:10:55;;;;;;;13.70;3.30;;;12.70;99.90;;;11.49;89.10;101023.47;4880101;23;20088;-77
2022/10/08 08:13:21;;;;;;;24.15;3.60;;;12.70;99.90;;;11.50;89.94;101054.16;4950922;28;20071;-78
2022/10/08 08:15:55;;;;;;;19.90;3.40;;;12.70;99.90;;;11.54;91.05;101058.38;4954587;28;20027;-78
2022/10/08 08:18:21;;;;;;;23.70;4.10;;;12.60;99.90;;;11.58;90.74;101061.75;4940737;28;20518;-78
2022/10/08 08:20:47;;;;;;;16.90;3.80;;;12.70;99.90;;;11.63;90.91;101070.28;4967775;28;20114;-77
2022/10/08 08:23:13;;;;;;;21.55;4.25;;;12.70;99.90;;;11.65;90.26;101061.38;4933426;29;20473;-78
2022/10/08 08:25:38;;;;;;;19.58;3.90;;;12.70;99.90;;;11.73;90.13;101057.50;4950890;29;20037;-76
2022/10/08 08:28:04;;;;;;;23.80;3.65;;;12.80;99.90;;;11.85;90.04;101064.88;4917378;29;20130;-78
2022/10/08 08:30:33;;;;;;;20.73;3.88;;;12.90;99.90;;;12.03;89.47;101065.81;4933387;29;20090;-77
2022/10/08 08:32:58;;;;;;;18.15;3.80;;;13.00;99.90;;;12.26;87.77;101056.81;4932047;29;20027;-77
2022/10/08 08:35:24;;;;;;;21.02;4.03;;;13.20;99.90;;;12.54;87.29;101055.47;4933074;29;20045;-77
2022/10/08 08:37:50;;;;;;;25.33;3.90;;;13.50;99.90;;;13.07;85.02;101062.47;4917425;28;20041;-77
2022/10/08 08:40:16;;;;;;;18.20;4.05;;;13.90;99.90;;;13.59;83.07;101069.50;4920252;29;20143;-77
2022/10/08 08:42:55;;;;;;;18.60;3.17;;;14.40;99.90;;;14.06;80.27;101080.13;4938907;29;20488;-76
2022/10/08 08:45:28;;;;;;;19.13;3.85;;;14.70;99.90;;;14.22;78.57;101074.81;4937797;29;20032;-78
2022/10/08 08:48:22;;;;;;;22.73;4.55;;;14.90;99.90;;;14.25;77.87;101073.78;4918372;28;20031;-77
2022/10/08 08:50:52;;;;;;;17.63;3.90;;;14.90;99.90;;;14.11;77.69;101078.06;4945374;28;20519;-76
2022/10/08 08:53:18;;;;;;;17.13;3.85;;;15.00;99.90;;;14.27;77.90;101075.41;4920810;29;20039;-77
2022/10/08 08:55:51;;;;;;;23.40;4.05;;;15.10;99.90;;;14.47;77.73;101068.97;4919622;29;20036;-78
2022/10/08 08:59:22;;;;;;;16.60;4.50;;;15.30;99.90;;;14.95;75.85;101077.69;4920407;29;20023;-77
2022/10/08 09:01:57;;;;;;;16.05;3.75;;;15.60;99.90;;;15.00;74.86;101087.16;4915658;29;20063;-76
2022/10/08 09:04:51;;;;;;;15.07;3.63;;;15.60;99.90;;;14.76;75.82;101080.56;4938017;29;20126;-77
2022/10/08 09:07:25;;;;;;;20.50;4.10;;;15.50;99.90;;;14.57;76.17;101078.13;4935743;29;20106;-77
2022/10/08 09:09:57;;;;;;;16.65;3.90;;;15.40;99.90;;;14.46;77.05;101071.72;4919024;29;20423;-77
2022/10/08 09:12:39;;;;;;;21.23;4.10;;;15.40;99.90;;;14.70;77.13;101080.06;4917455;29;20123;-77
2022/10/08 09:15:37;;;;;;;15.75;3.40;;;15.50;99.90;;;15.10;76.14;101093.63;4935749;29;20051;-77
2022/10/08 09:18:07;;;;;;;22.65;3.50;;;15.80;99.90;;;15.41;75.62;101099.75;4934283;29;20051;-77
2022/10/08 09:20:38;;;;;;;20.60;4.05;;;16.00;99.90;;;15.53;75.51;101088.38;4934042;28;20039;-77
2022/10/08 09:23:25;;;;;;;18.15;4.13;;;16.20;99.90;;;15.72;74.75;101094.28;4935693;29;20031;-78
2022/10/08 09:26:16;;;;;;;17.05;3.95;;;16.30;99.90;;;15.87;74.55;101100.41;4934271;29;20043;-77
2022/10/08 09:28:59;;;;;;;22.00;3.88;;;16.50;99.90;;;15.89;73.42;101095.88;4936583;29;20055;-78
2022/10/08 09:31:38;;;;;;;14.57;3.78;;;16.60;99.90;;;15.91;73.43;101098.44;4920201;29;20043;-77
2022/10/08 09:34:18;;;;;;;19.50;4.43;;;16.70;99.90;;;16.11;73.85;101097.16;4951450;29;20573;-77
2022/10/08 09:37:00;;;;;;;17.00;4.22;;;16.80;99.90;;;16.33;73.62;101096.66;4917467;29;20691;-77
2022/10/08 09:39:30;;;;;;;18.45;3.65;;;16.90;99.90;;;16.35;72.93;101095.59;4951552;29;20046;-77
2022/10/08 09:42:20;;;;;;;14.63;3.75;;;17.00;99.90;;;16.37;72.63;101093.69;4933948;29;20071;-77
2022/10/08 09:44:57;;;;;;;23.02;3.47;;;17.10;99.90;;;16.39;72.34;101101.53;4918797;29;20038;-78
2022/10/08 09:47:25;;;;;;;16.92;3.63;;;17.10;99.90;;;16.29;71.98;101093.34;4918663;29;20681;-77
2022/10/08 09:50:18;;;;;;;20.30;3.42;;;17.00;99.90;;;16.12;71.67;101089.09;4934146;29;20428;-77
2022/10/08 09:52:52;;;;;;;20.15;3.78;;;16.90;99.90;;;16.08;72.24;101095.56;4935255;29;20384;-78
2022/10/08 09:55:30;;;;;;;17.02;3.58;;;16.80;99.90;;;15.92;72.28;101100.16;4935060;29;20027;-77
2022/10/08 09:58:07;;;;;;;13.90;3.00;;;16.70;99.90;;;15.80;72.46;101109.72;4935285;29;20134;-77
2022/10/08 10:00:40;;;;;;;15.13;3.00;;;16.60;99.90;;;15.83;72.77;101120.16;4934946;28;20035;-77
2022/10/08 10:03:25;;;;;;;13.85;3.08;;;16.60;99.90;;;15.93;72.90;101120.44;4918623;29;20043;-77
2022/10/08 10:06:01;;;;;;;14.90;3.55;;;16.70;99.90;;;16.10;72.89;101112.25;4932317;29;20039;-77
2022/10/08 10:08:58;;;;;;;21.75;3.80;;;16.80;99.90;;;16.29;72.90;101111.94;4935663;29;20043;-77
2022/10/08 10:11:41;;;;;;;17.67;3.80;;;17.00;99.90;;;16.44;72.65;101126.03;4906762;28;1222988;-77
2022/10/08 10:15:11;;;;;;;20.95;3.70;;;17.10;99.90;;;16.44;71.74;101120.72;4936325;29;20034;-78
2022/10/08 10:18:19;;;;;;;20.00;3.45;;;17.20;99.90;;;16.60;70.63;101118.75;4923426;29;20043;-76
2022/10/08 10:21:00;;;;;;;16.23;4.15;;;17.30;99.90;;;16.67;71.25;101118.34;4950467;28;21195;-77
2022/10/08 10:23:41;;;;;;;16.58;4.07;;;17.40;99.90;;;16.72;71.49;101114.44;4935008;29;20035;-77
2022/10/08 10:26:20;;;;;;;13.35;3.55;;;17.40;99.90;;;16.78;70.91;101118.47;4935622;29;20035;-77
2022/10/08 10:28:54;;;;;;;17.70;3.80;;;17.50;99.90;;;16.85;71.21;101124.31;4938877;29;20054;-77
2022/10/08 10:31:52;;;;;;;19.02;3.42;;;17.50;99.90;;;16.86;70.75;101126.00;4937849;29;20035;-77
2022/10/08 10:34:24;;;;;;;19.13;3.72;;;17.60;99.90;;;16.80;70.68;101121.94;4941050;29;20031;-77
2022/10/08 10:37:07;;;;;;;18.75;3.53;;;17.50;99.90;;;16.76;70.90;101117.72;4956610;29;20023;-77
2022/10/08 10:39:59;;;;;;;14.43;3.20;;;17.50;99.90;;;16.83;71.04;101121.75;4941616;28;20527;-77
2022/10/08 10:43:11;;;;;;;18.85;3.45;;;17.60;99.90;;;17.00;71.31;101126.78;4936695;29;20035;-77
2022/10/08 10:45:39;;;;;;;21.00;3.53;;;17.70;99.90;;;17.01;70.29;101130.28;4923314;28;20486;-77
2022/10/08 10:48:14;;;;;;;19.67;3.75;;;17.70;99.90;;;16.95;70.52;101136.00;4924988;29;20412;-77
2022/10/08 10:51:13;;;;;;;15.68;3.33;;;17.70;99.90;;;16.82;70.35;101128.00;4940461;28;20030;-77
2022/10/08 10:54:35;;;;;;;14.38;3.33;;;17.60;99.90;;;16.70;70.63;101131.47;4953375;29;20479;-77
2022/10/08 10:57:09;;;;;;;17.30;3.60;;;17.50;99.90;;;16.46;71.00;101118.81;4954319;29;20027;-76
2022/10/08 10:59:51;;;;;;;18.40;3.50;;;17.30;99.90;;;16.42;71.40;101124.44;4936280;29;20050;-77
2022/10/08 11:02:34;;;;;;;13.15;3.50;;;17.30;99.90;;;16.38;71.85;101121.13;4934758;29;20038;-77
2022/10/08 11:05:17;;;;;;;17.42;3.40;;;17.20;99.90;;;16.46;72.07;101124.13;4935831;29;20039;-77